Time;durP1;ratioP1;P1;durP2;ratioP2;P2;SDS_P1;SDS_P2;PMS_P1;PMS_P2;Temp;Humidity;BMP_temperature;BMP_pressure;BME280_temperature;BME280_humidity;BME280_pressure;Samples;Min_cycle;Max_cycle;Signal;HPM_P1;HPM_P2
2023/03/31 00:04:58;;;;;;;5.17;2.37;;;;;;;15.43;44.80;98895.00;10191662;28;20240;-37
2023/03/31 00:10:00;;;;;;;3.93;2.30;;;;;;;14.27;45.97;98858.69;10190153;29;20247;-37
2023/03/31 00:15:19;;;;;;;7.73;2.90;;;;;;;14.37;45.25;98855.44;10197583;29;20232;-37
2023/03/31 00:20:21;;;;;;;5.37;2.13;;;;;;;14.54;45.33;98842.09;10189371;29;20680;-37
2023/03/31 00:25:23;;;;;;;4.47;2.77;;;;;;;14.09;46.63;98856.91;10191183;29;20607;-37
2023/03/31 00:30:25;;;;;;;4.47;2.30;;;;;;;14.80;45.25;98875.03;10193284;29;20243;-37
2023/03/31 00:35:26;;;;;;;4.20;2.27;;;;;;;15.76;43.42;98836.84;10186739;29;20232;-38
2023/03/31 00:40:28;;;;;;;5.67;2.53;;;;;;;14.75;45.34;98876.53;10192706;29;20239;-38
2023/03/31 00:45:30;;;;;;;3.23;2.37;;;;;;;13.43;46.57;98819.13;10195573;29;20240;-37
2023/03/31 00:50:36;;;;;;;4.43;2.13;;;;;;;13.22;48.40;98816.88;10198564;29;20299;-38
2023/03/31 00:55:46;;;;;;;4.63;1.90;;;;;;;13.81;46.82;98791.09;10194622;29;20237;-37
2023/03/31 01:00:51;;;;;;;6.10;2.40;;;;;;;12.98;48.36;98740.75;10189936;29;20244;-37
2023/03/31 01:06:00;;;;;;;3.63;1.73;;;;;;;13.45;47.87;98776.72;10191926;29;20331;-38
2023/03/31 01:11:08;;;;;;;4.40;2.20;;;;;;;13.99;46.91;98800.94;10197201;29;20689;-39
2023/03/31 01:16:09;;;;;;;4.70;2.10;;;;;;;14.26;46.42;98832.03;10190755;29;20248;-37
2023/03/31 01:21:14;;;;;;;4.87;2.40;;;;;;;13.31;46.79;98793.25;10195306;29;20219;-39
2023/03/31 01:26:44;;;;;;;4.43;2.23;;;;;;;12.89;48.01;98749.09;10191387;29;20207;-40
2023/03/31 01:32:01;;;;;;;4.13;1.97;;;;;;;13.47;48.48;98820.31;10188931;29;20231;-38
2023/03/31 01:37:13;;;;;;;4.53;2.20;;;;;;;13.78;47.50;98798.78;10190143;29;20235;-37
2023/03/31 01:42:36;;;;;;;4.00;2.37;;;;;;;14.11;47.21;98795.63;10195337;29;20224;-38
2023/03/31 01:47:50;;;;;;;4.70;2.30;;;;;;;13.55;47.56;98759.22;10191529;28;20236;-37
2023/03/31 01:53:14;;;;;;;5.30;2.30;;;;;;;14.37;46.51;98786.28;10187484;29;20259;-37
2023/03/31 01:58:31;;;;;;;6.50;2.10;;;;;;;14.53;46.76;98759.72;10189947;29;20267;-38
2023/03/31 02:03:39;;;;;;;3.30;2.30;;;;;;;14.86;46.27;98740.25;10187657;29;20359;-38
2023/03/31 02:08:48;;;;;;;3.60;2.60;;;;;;;14.01;48.46;98750.44;10192894;29;20259;-39
2023/03/31 02:13:53;;;;;;;3.27;2.80;;;;;;;12.77;50.67;98689.13;10185733;29;20347;-40
2023/03/31 02:19:01;;;;;;;7.07;2.73;;;;;;;12.70;51.16;98699.13;10186969;29;20242;-37
2023/03/31 02:24:06;;;;;;;7.23;3.33;;;;;;;12.91;50.70;98679.88;10189326;29;20616;-37
2023/03/31 02:29:08;;;;;;;5.23;2.80;;;;;;;15.54;46.22;98658.75;10186204;29;20238;-40
2023/03/31 02:34:10;;;;;;;4.60;2.30;;;;;;;13.84;47.64;98572.00;10185151;29;20325;-37
2023/03/31 02:39:16;;;;;;;5.33;2.80;;;;;;;13.08;49.58;98580.69;10182820;29;20851;-37
2023/03/31 02:44:18;;;;;;;7.07;3.07;;;;;;;12.99;50.52;98610.78;10191555;29;20244;-37
2023/03/31 02:49:21;;;;;;;4.93;2.93;;;;;;;14.24;48.40;98594.66;10189905;29;20593;-37
2023/03/31 02:54:29;;;;;;;8.37;3.63;;;;;;;15.21;45.84;98521.03;10192072;29;20235;-36
2023/03/31 02:59:56;;;;;;;6.00;2.83;;;;;;;12.75;49.32;98452.34;10190534;29;20841;-40
2023/03/31 03:05:19;;;;;;;8.93;3.30;;;;;;;12.53;51.79;98562.06;10164832;29;20604;-39
2023/03/31 03:10:34;;;;;;;4.93;3.00;;;;;;;13.10;51.28;98569.72;10164107;28;20235;-39
2023/03/31 03:15:45;;;;;;;6.90;2.73;;;;;;;13.02;50.35;98533.28;10187044;29;20245;-37
2023/03/31 03:20:49;;;;;;;5.10;3.00;;;;;;;12.96;49.94;98518.09;10184789;29;20254;-37
2023/03/31 03:25:51;;;;;;;5.10;2.67;;;;;;;12.36;51.17;98462.59;10190587;29;20240;-37
2023/03/31 03:30:52;;;;;;;6.00;2.73;;;;;;;13.93;48.88;98427.25;10185479;29;20240;-37
2023/03/31 03:35:54;;;;;;;7.93;3.70;;;;;;;14.03;48.04;98414.81;10187846;28;20260;-39
2023/03/31 03:40:56;;;;;;;5.60;3.00;;;;;;;13.89;48.56;98453.00;10190165;29;20381;-39
2023/03/31 03:45:58;;;;;;;4.83;3.23;;;;;;;15.16;45.61;98437.44;10187711;29;20256;-40
2023/03/31 03:51:00;;;;;;;5.53;3.43;;;;;;;15.79;44.59;98493.84;10185259;29;20236;-39
2023/03/31 03:56:02;;;;;;;6.93;3.60;;;;;;;15.72;44.90;98482.44;10186716;29;20242;-40
2023/03/31 04:01:04;;;;;;;6.23;3.50;;;;;;;15.74;44.68;98480.28;10265646;22;20324;-37
2023/03/31 04:06:06;;;;;;;6.20;3.03;;;;;;;15.24;45.16;98455.88;10349260;28;20241;-37
2023/03/31 04:11:13;;;;;;;6.33;3.33;;;;;;;16.06;43.96;98438.06;10351621;28;20610;-37
2023/03/31 04:16:19;;;;;;;6.00;2.83;;;;;;;15.50;44.96;98418.50;10351517;28;20250;-37
2023/03/31 04:21:22;;;;;;;5.00;2.90;;;;;;;15.61;44.45;98387.94;10347864;28;20276;-37
2023/03/31 04:26:30;;;;;;;9.13;3.83;;;;;;;14.48;46.13;98339.75;10352744;28;20232;-37
2023/03/31 04:31:32;;;;;;;5.13;3.20;;;;;;;14.12;47.13;98387.56;10354299;28;20731;-37
2023/03/31 04:36:41;;;;;;;5.60;3.60;;;;;;;14.46;47.38;98427.97;10361716;28;20237;-37
2023/03/31 04:41:43;;;;;;;6.43;3.93;;;;;;;13.83;48.26;98426.00;10352473;28;20291;-37
2023/03/31 04:46:45;;;;;;;7.67;3.57;;;;;;;14.70;47.73;98447.50;10361784;28;20308;-38
2023/03/31 04:51:47;;;;;;;7.70;3.90;;;;;;;13.83;48.34;98414.44;10357277;28;20734;-37
2023/03/31 04:56:48;;;;;;;7.83;4.10;;;;;;;14.01;49.05;98425.00;10350297;28;20565;-37
2023/03/31 05:01:50;;;;;;;7.47;4.43;;;;;;;14.02;49.72;98453.53;10355693;28;20241;-37
2023/03/31 05:06:52;;;;;;;7.83;4.40;;;;;;;12.60;52.30;98361.53;10361748;28;20290;-37
2023/03/31 05:11:54;;;;;;;8.93;4.40;;;;;;;12.08;53.26;98310.34;10353327;28;20252;-37
2023/03/31 05:16:56;;;;;;;7.37;3.57;;;;;;;12.19;54.65;98363.22;10351585;28;20722;-37
2023/03/31 05:21:58;;;;;;;9.87;4.13;;;;;;;10.96;56.39;98250.88;10355141;28;20950;-37
2023/03/31 05:27:00;;;;;;;8.87;4.33;;;;;;;12.13;55.52;98361.44;10353689;28;20279;-37
2023/03/31 05:32:02;;;;;;;6.93;3.93;;;;;;;10.84;57.58;98301.63;10358196;28;20237;-38
2023/03/31 05:37:04;;;;;;;8.47;4.60;;;;;;;10.64;58.58;98303.69;10357698;28;20241;-37
2023/03/31 05:42:06;;;;;;;8.20;4.83;;;;;;;10.22;59.02;98264.13;10360016;28;20248;-37
2023/03/31 05:47:08;;;;;;;12.23;5.37;;;;;;;10.38;59.55;98277.97;10358427;28;20205;-37
2023/03/31 05:52:10;;;;;;;9.40;5.50;;;;;;;10.84;59.34;98311.53;10356427;28;20736;-37
2023/03/31 05:57:12;;;;;;;7.33;4.53;;;;;;;10.00;60.61;98278.94;10357809;28;20229;-37
2023/03/31 06:02:13;;;;;;;11.67;5.70;;;;;;;11.18;57.98;98347.59;10358742;28;20775;-37
2023/03/31 06:07:16;;;;;;;10.40;5.30;;;;;;;11.10;57.65;98328.34;10349245;28;20237;-37
2023/03/31 06:12:18;;;;;;;7.87;4.20;;;;;;;9.55;61.07;98189.84;10351104;28;20248;-37
2023/03/31 06:17:20;;;;;;;8.50;5.00;;;;;;;11.99;57.23;98358.13;10358028;28;20237;-37
2023/03/31 06:22:21;;;;;;;10.63;4.70;;;;;;;11.55;57.54;98339.53;10331269;28;20243;-37
2023/03/31 06:27:23;;;;;;;9.23;5.60;;;;;;;11.74;57.37;98323.44;10366056;28;20257;-37
2023/03/31 06:32:25;;;;;;;8.73;5.20;;;;;;;10.77;59.93;98327.66;10354592;28;20229;-36
2023/03/31 06:37:27;;;;;;;9.33;5.53;;;;;;;12.07;57.52;98340.91;10351983;28;20239;-36
2023/03/31 06:42:29;;;;;;;7.23;4.87;;;;;;;10.75;59.02;98311.00;10350839;28;20764;-37
2023/03/31 06:47:31;;;;;;;8.60;4.57;;;;;;;11.73;57.75;98314.59;10357375;28;20229;-36
2023/03/31 06:52:33;;;;;;;6.13;5.07;;;;;;;11.72;57.33;98365.72;10350850;28;20251;-36
2023/03/31 06:57:36;;;;;;;7.80;4.63;;;;;;;12.23;57.01;98376.97;10352971;28;20237;-41
2023/03/31 07:02:37;;;;;;;7.57;4.50;;;;;;;11.14;58.48;98383.91;10358337;28;20233;-37
2023/03/31 07:07:39;;;;;;;8.53;3.73;;;;;;;10.56;59.74;98342.22;10358401;28;20279;-37
2023/03/31 07:12:41;;;;;;;7.10;4.40;;;;;;;11.96;56.66;98390.75;10350797;28;20575;-37
2023/03/31 07:17:43;;;;;;;8.90;5.10;;;;;;;13.25;54.30;98470.72;10360371;28;20708;-37
2023/03/31 07:22:47;;;;;;;7.87;4.50;;;;;;;11.43;56.99;98398.41;10350475;28;20400;-37
2023/03/31 07:27:49;;;;;;;9.37;4.37;;;;;;;12.40;56.15;98438.81;10358686;28;20233;-37
2023/03/31 07:32:51;;;;;;;5.50;3.53;;;;;;;12.14;55.74;98417.50;10353150;28;20707;-37
2023/03/31 07:37:53;;;;;;;3.73;3.13;;;;;;;12.44;54.44;98443.50;10356122;28;20233;-37
2023/03/31 07:42:55;;;;;;;4.03;2.60;;;;;;;11.54;54.66;98402.19;10353622;28;20233;-37
2023/03/31 07:47:57;;;;;;;5.10;3.30;;;;;;;12.24;54.42;98454.53;10355733;28;20732;-37
2023/03/31 07:52:58;;;;;;;4.37;3.77;;;;;;;12.61;53.30;98488.50;10358076;28;20248;-37
2023/03/31 07:58:00;;;;;;;5.40;3.40;;;;;;;13.37;52.27;98497.59;10354947;28;20355;-37
2023/03/31 08:03:02;;;;;;;3.27;2.33;;;;;;;13.43;51.81;98483.22;10364842;28;20237;-37
2023/03/31 08:08:04;;;;;;;3.47;2.40;;;;;;;13.27;51.64;98473.97;10364577;28;20650;-36
2023/03/31 08:13:06;;;;;;;3.40;2.33;;;;;;;13.46;50.91;98458.59;10362205;28;20237;-37
2023/03/31 08:18:08;;;;;;;4.83;2.30;;;;;;;11.96;53.51;98436.31;10361060;28;20245;-36
2023/03/31 08:23:10;;;;;;;3.13;2.40;;;;;;;13.07;51.97;98454.72;10364448;28;20242;-36
2023/03/31 08:28:13;;;;;;;4.43;2.20;;;;;;;13.79;51.12;98494.75;10362452;28;20236;-36
2023/03/31 08:33:14;;;;;;;4.80;2.93;;;;;;;13.53;51.13;98441.50;10362140;28;20242;-36
2023/03/31 08:38:16;;;;;;;4.23;2.70;;;;;;;14.04;50.94;98464.06;10366996;28;20332;-37
2023/03/31 08:43:26;;;;;;;5.67;2.60;;;;;;;14.27;49.75;98479.28;10358869;28;20233;-37
2023/03/31 08:48:32;;;;;;;3.00;2.30;;;;;;;14.30;49.30;98429.59;10362017;28;20218;-37
2023/03/31 08:53:41;;;;;;;4.67;2.40;;;;;;;14.51;49.82;98442.34;10362313;28;20419;-36
2023/03/31 08:58:45;;;;;;;3.73;2.67;;;;;;;14.18;49.91;98367.75;10362734;28;20884;-36
2023/03/31 09:03:50;;;;;;;6.30;2.83;;;;;;;14.01;49.93;98376.59;10364955;28;20233;-37
2023/03/31 09:08:58;;;;;;;3.77;2.37;;;;;;;15.27;48.13;98379.13;10359215;28;20225;-36
2023/03/31 09:14:25;;;;;;;5.60;2.40;;;;;;;14.95;47.92;98332.09;10358341;28;20276;-36
2023/03/31 09:19:42;;;;;;;6.23;2.80;;;;;;;14.70;48.19;98315.56;10359204;28;20228;-36
2023/03/31 09:25:06;;;;;;;4.57;2.50;;;;;;;15.09;47.29;98321.78;10361335;28;20237;-36
2023/03/31 09:30:20;;;;;;;8.57;2.97;;;;;;;15.11;45.85;98292.69;10364538;28;20233;-36
2023/03/31 09:35:25;;;;;;;6.90;2.50;;;;;;;14.94;46.33;98290.06;10362568;28;20237;-37
2023/03/31 09:40:28;;;;;;;7.77;2.70;;;;;;;15.16;45.39;98293.84;10356784;28;20287;-37
2023/03/31 09:45:32;;;;;;;7.67;2.60;;;;;;;15.01;44.73;98254.88;10359507;28;20613;-37
2023/03/31 09:50:54;;;;;;;9.77;3.00;;;;;;;15.58;44.70;98291.38;10358273;28;20225;-36
2023/03/31 09:56:01;;;;;;;6.93;2.23;;;;;;;15.81;43.29;98266.00;10356701;28;20240;-37
2023/03/31 10:01:07;;;;;;;5.63;3.00;;;;;;;14.90;44.71;98220.81;10363451;28;20229;-37
2023/03/31 10:06:13;;;;;;;6.50;2.57;;;;;;;13.92;45.22;98171.00;10361356;28;20236;-38
2023/03/31 10:11:15;;;;;;;5.63;2.53;;;;;;;14.95;44.55;98243.22;10350093;28;20312;-37
2023/03/31 10:16:22;;;;;;;7.60;3.27;;;;;;;15.77;43.77;98286.44;10360203;28;20216;-38
2023/03/31 10:21:26;;;;;;;6.70;3.17;;;;;;;15.58;43.81;98272.50;10358314;28;20339;-38
2023/03/31 10:26:28;;;;;;;6.33;2.43;;;;;;;16.18;42.93;98261.69;10354234;28;20237;-37
2023/03/31 10:31:35;;;;;;;6.60;2.97;;;;;;;16.62;42.62;98304.69;10353199;28;20237;-38
2023/03/31 10:36:42;;;;;;;7.67;2.73;;;;;;;14.31;45.24;98203.31;10357633;28;20299;-37
2023/03/31 10:41:50;;;;;;;4.30;1.87;;;;;;;14.81;43.81;98233.03;10357246;28;20245;-37
2023/03/31 10:46:52;;;;;;;6.80;2.10;;;;;;;13.74;44.78;98252.69;10357129;28;20745;-38
2023/03/31 10:51:57;;;;;;;4.00;1.77;;;;;;;13.25;44.14;98266.56;10357923;28;20295;-37
2023/03/31 10:57:05;;;;;;;2.83;1.70;;;;;;;13.60;43.58;98291.69;10355752;28;20237;-38
2023/03/31 11:06:44;;;;;;;3.33;2.27;;;;;;;10.60;49.61;98396.13;10477158;27;20835;-72
2023/03/31 11:11:46;;;;;;;2.10;1.93;;;;;;;10.85;48.28;98396.94;10465330;28;20301;-68
2023/03/31 11:17:16;;;;;;;1.83;1.73;;;;;;;10.80;48.16;98375.38;10476239;28;20234;-68
2023/03/31 11:22:36;;;;;;;4.40;2.17;;;;;;;11.53;47.41;98395.19;10468328;28;20231;-70
2023/03/31 11:27:59;;;;;;;3.87;2.10;;;;;;;12.37;47.16;98402.56;10475581;28;20667;-68
2023/03/31 11:33:42;;;;;;;1.90;1.80;;;;;;;11.04;48.53;98368.34;10474452;28;20218;-71
2023/03/31 11:38:54;;;;;;;2.53;1.60;;;;;;;11.65;49.23;98378.41;10468828;28;20237;-71
2023/03/31 11:44:18;;;;;;;1.60;1.50;;;;;;;9.70;51.97;98258.16;10466407;28;20253;-67
2023/03/31 11:49:29;;;;;;;1.87;1.77;;;;;;;11.25;49.76;98355.56;10477862;28;20462;-69
2023/03/31 11:54:39;;;;;;;3.73;1.60;;;;;;;11.09;51.36;98362.31;10472203;28;20232;-69
2023/03/31 11:59:42;;;;;;;2.70;1.93;;;;;;;12.22;49.17;98341.28;10475750;28;20236;-71
2023/03/31 12:04:52;;;;;;;1.93;1.60;;;;;;;11.10;51.25;98352.44;10474158;28;20235;-71
2023/03/31 12:10:22;;;;;;;1.90;1.50;;;;;;;11.25;49.75;98296.63;10474866;28;20247;-69
2023/03/31 12:15:37;;;;;;;4.07;1.60;;;;;;;12.15;49.45;98343.28;10458918;28;20267;-69
2023/03/31 12:20:47;;;;;;;3.07;1.53;;;;;;;11.75;49.82;98336.63;10443096;28;21058;-71
2023/03/31 12:26:15;;;;;;;5.07;1.90;;;;;;;11.23;51.89;98317.47;10448154;28;20603;-71
2023/03/31 12:31:22;;;;;;;2.23;1.53;;;;;;;11.87;51.33;98325.94;10444161;28;20602;-71
2023/03/31 12:36:23;;;;;;;1.67;1.43;;;;;;;10.78;53.56;98282.97;10450603;28;20216;-71
2023/03/31 12:41:45;;;;;;;3.80;1.77;;;;;;;11.24;53.69;98270.94;10445520;28;20286;-71
2023/03/31 12:47:12;;;;;;;4.67;1.93;;;;;;;12.31;50.90;98283.56;10443589;28;20231;-72
2023/03/31 12:52:36;;;;;;;1.97;1.57;;;;;;;10.91;53.77;98237.34;10449009;28;20798;-73
2023/03/31 12:57:37;;;;;;;3.43;2.40;;;;;;;12.11;51.53;98224.91;10451538;28;20228;-73
2023/03/31 13:02:40;;;;;;;3.17;2.00;;;;;;;11.98;51.01;98231.34;10439730;28;20232;-73
2023/03/31 13:07:42;;;;;;;5.50;1.70;;;;;;;12.45;49.34;98235.91;10445617;28;20242;-71
2023/03/31 13:13:15;;;;;;;3.17;1.67;;;;;;;12.70;49.52;98224.09;10434934;28;20224;-70
2023/03/31 13:18:22;;;;;;;1.93;1.60;;;;;;;12.67;49.53;98229.94;10440156;28;20606;-72
2023/03/31 13:23:24;;;;;;;2.43;1.70;;;;;;;12.87;49.11;98214.28;10445032;28;20612;-71
2023/03/31 13:28:38;;;;;;;3.33;2.00;;;;;;;12.23;49.75;98206.16;10442708;28;20616;-68
2023/03/31 13:33:58;;;;;;;4.47;1.77;;;;;;;10.96;51.58;98191.19;10437919;28;20227;-75
2023/03/31 13:39:08;;;;;;;4.17;2.00;;;;;;;12.49;49.76;98247.00;10437245;28;20714;-72
2023/03/31 13:44:52;;;;;;;3.90;1.77;;;;;;;10.70;51.45;98193.91;10427052;28;20306;-73
2023/03/31 13:50:02;;;;;;;2.57;1.73;;;;;;;10.62;50.76;98209.47;10392255;28;20412;-72
2023/03/31 13:55:20;;;;;;;3.33;1.47;;;;;;;10.40;50.92;98174.31;10394307;28;20279;-76
2023/03/31 14:00:40;;;;;;;1.80;1.70;;;;;;;11.44;49.63;98241.22;10395915;28;20243;-73
2023/03/31 14:05:49;;;;;;;2.40;1.60;;;;;;;12.15;49.49;98260.16;10438953;28;20942;-72
2023/03/31 14:10:51;;;;;;;3.43;2.00;;;;;;;11.45;51.25;98259.69;10440246;28;20228;-72
2023/03/31 14:15:56;;;;;;;3.53;1.50;;;;;;;11.50;52.21;98276.97;10444137;28;20752;-72
2023/03/31 14:21:32;;;;;;;3.73;2.10;;;;;;;12.80;49.85;98293.28;10441088;28;20243;-70
2023/03/31 14:26:46;;;;;;;1.87;1.63;;;;;;;12.69;50.17;98260.84;10434365;28;20656;-72
2023/03/31 14:32:10;;;;;;;3.20;1.83;;;;;;;11.28;51.11;98218.53;10435452;28;20247;-71
2023/03/31 14:37:16;;;;;;;3.67;2.00;;;;;;;13.23;49.12;98254.44;10429683;28;20232;-71
2023/03/31 14:42:24;;;;;;;2.33;2.00;;;;;;;13.10;48.42;98193.75;10433146;28;20238;-71
2023/03/31 14:47:29;;;;;;;3.03;1.77;;;;;;;12.25;49.13;98157.63;10435751;28;20239;-71
2023/03/31 14:52:34;;;;;;;3.00;2.17;;;;;;;12.03;51.25;98184.22;10436504;28;20224;-71
2023/03/31 14:57:40;;;;;;;2.93;1.73;;;;;;;12.18;51.16;98208.72;10435621;28;20695;-71
2023/03/31 15:02:43;;;;;;;5.17;1.70;;;;;;;11.09;54.99;98206.25;10435159;28;20730;-72
2023/03/31 15:07:47;;;;;;;3.50;2.37;;;;;;;11.97;53.86;98170.72;10433681;28;20668;-71
2023/03/31 15:12:49;;;;;;;4.30;1.70;;;;;;;12.36;53.78;98202.41;10436242;28;20715;-71
2023/03/31 15:17:51;;;;;;;2.13;2.03;;;;;;;10.73;55.78;98149.03;10429407;28;20232;-71
2023/03/31 15:22:55;;;;;;;3.67;2.10;;;;;;;12.98;52.52;98187.63;10431876;28;20227;-72
2023/03/31 15:28:03;;;;;;;5.33;2.90;;;;;;;12.01;52.98;98146.94;10430606;28;20243;-71
2023/03/31 15:33:18;;;;;;;3.33;2.17;;;;;;;12.75;52.74;98165.16;10430584;28;20216;-72
2023/03/31 15:38:25;;;;;;;5.53;2.10;;;;;;;12.62;52.13;98170.78;10429274;28;20401;-72
2023/03/31 15:43:31;;;;;;;3.90;2.27;;;;;;;12.57;52.45;98189.47;10433000;28;20232;-71
2023/03/31 15:48:36;;;;;;;3.00;1.60;;;;;;;12.79;50.13;98201.22;10428794;28;20661;-71
2023/03/31 15:53:44;;;;;;;1.50;1.40;;;;;;;12.19;49.10;98210.34;10440759;28;20220;-71
2023/03/31 15:58:53;;;;;;;1.73;1.63;;;;;;;12.67;47.75;98201.25;10432068;28;20244;-69
2023/03/31 16:03:56;;;;;;;2.53;2.20;;;;;;;12.77;46.59;98226.66;10433143;28;20323;-72
2023/03/31 16:09:06;;;;;;;1.73;1.57;;;;;;;12.36;47.62;98243.47;10435239;28;20228;-73
2023/03/31 16:14:33;;;;;;;2.77;1.60;;;;;;;12.51;48.38;98302.03;10431077;28;20281;-71
2023/03/31 16:19:43;;;;;;;2.50;2.30;;;;;;;13.13;48.14;98305.22;10437911;28;20233;-73
2023/03/31 16:24:45;;;;;;;2.13;1.80;;;;;;;12.45;49.42;98268.09;10429814;28;20283;-71
2023/03/31 16:29:47;;;;;;;3.93;2.50;;;;;;;14.20;47.72;98338.75;10438107;28;20286;-72
2023/03/31 16:34:56;;;;;;;2.37;2.17;;;;;;;12.77;49.18;98253.50;10426961;28;20712;-68
2023/03/31 16:39:57;;;;;;;2.53;2.10;;;;;;;12.71;49.06;98279.41;10434017;28;20239;-72
2023/03/31 16:44:59;;;;;;;3.73;2.63;;;;;;;13.01;48.24;98275.72;10435859;28;20917;-73
2023/03/31 16:50:15;;;;;;;4.10;2.00;;;;;;;11.23;51.45;98234.47;10441900;28;20231;-72
2023/03/31 16:55:16;;;;;;;4.83;2.90;;;;;;;9.12;56.73;98216.41;10437753;28;20231;-73
2023/03/31 17:00:18;;;;;;;4.80;2.30;;;;;;;8.55;56.37;98165.50;10437814;28;20323;-73
2023/03/31 17:05:20;;;;;;;4.40;3.03;;;;;;;11.05;52.83;98275.47;10433617;28;20232;-73
2023/03/31 17:10:22;;;;;;;2.17;1.90;;;;;;;11.95;50.71;98225.63;10429314;28;20235;-74
2023/03/31 17:15:23;;;;;;;3.17;2.10;;;;;;;12.09;50.14;98226.22;10434948;28;20228;-74
2023/03/31 17:20:25;;;;;;;5.47;2.33;;;;;;;10.28;54.63;98257.13;10433985;28;20232;-73
2023/03/31 17:25:27;;;;;;;3.67;1.90;;;;;;;9.90;57.16;98269.53;10432933;28;20663;-73
2023/03/31 17:30:30;;;;;;;1.87;1.77;;;;;;;9.95;56.83;98244.84;10435672;28;20335;-74
2023/03/31 17:35:32;;;;;;;4.67;2.27;;;;;;;9.96;57.21;98249.97;10431708;28;20236;-74
2023/03/31 17:40:34;;;;;;;2.97;1.90;;;;;;;10.74;55.65;98253.16;10432344;28;20234;-74
2023/03/31 17:45:35;;;;;;;3.90;2.30;;;;;;;10.82;55.87;98260.91;10435584;28;20234;-74
2023/03/31 17:50:37;;;;;;;3.00;2.50;;;;;;;11.19;55.26;98271.59;10431432;28;20608;-74
2023/03/31 17:55:39;;;;;;;7.33;2.10;;;;;;;9.22;57.54;98222.91;10432856;28;20256;-74
2023/03/31 18:00:41;;;;;;;3.30;2.27;;;;;;;9.43;57.90;98268.16;10429762;28;20228;-74
2023/03/31 18:05:43;;;;;;;2.83;1.80;;;;;;;8.76;58.82;98221.22;10431628;28;20254;-74
2023/03/31 18:10:45;;;;;;;2.40;2.20;;;;;;;10.01;56.42;98276.03;10428962;28;20236;-74
2023/03/31 18:15:51;;;;;;;4.00;2.63;;;;;;;10.77;54.39;98290.19;10432360;28;20235;-74
2023/03/31 18:20:53;;;;;;;4.13;2.30;;;;;;;10.63;54.76;98320.75;10431679;28;20229;-74
2023/03/31 18:25:55;;;;;;;3.50;2.07;;;;;;;10.61;55.45;98323.66;10423627;28;20232;-74
2023/03/31 18:30:57;;;;;;;2.70;1.83;;;;;;;10.00;56.78;98316.34;10434021;28;20259;-74
2023/03/31 18:35:59;;;;;;;5.37;2.67;;;;;;;10.06;55.99;98308.28;10429224;28;20698;-74
2023/03/31 18:41:01;;;;;;;2.50;2.20;;;;;;;11.33;54.55;98341.06;10425478;28;20494;-74
2023/03/31 18:46:03;;;;;;;4.03;2.30;;;;;;;11.42;53.72;98331.66;10431636;28;20320;-74
2023/03/31 18:51:05;;;;;;;2.50;1.90;;;;;;;11.78;52.81;98356.78;10433913;28;20228;-74
2023/03/31 18:56:06;;;;;;;3.93;2.37;;;;;;;11.71;53.11;98345.31;10428563;28;20223;-74
2023/03/31 19:01:08;;;;;;;4.57;2.30;;;;;;;11.31;52.89;98351.19;10422001;28;20227;-71
2023/03/31 19:06:11;;;;;;;7.43;2.50;;;;;;;10.91;54.50;98387.22;10434019;28;20243;-74
2023/03/31 19:11:14;;;;;;;7.17;2.20;;;;;;;10.21;56.12;98377.47;10432500;28;20214;-74
2023/03/31 19:16:17;;;;;;;4.70;3.20;;;;;;;11.85;54.27;98424.53;10435023;28;20258;-74
2023/03/31 19:21:20;;;;;;;6.40;2.83;;;;;;;12.43;52.16;98441.84;10426978;28;20239;-73
2023/03/31 19:26:22;;;;;;;4.20;2.23;;;;;;;12.84;52.28;98458.19;10432857;28;20239;-73
2023/03/31 19:31:23;;;;;;;3.90;2.70;;;;;;;12.31;52.47;98419.56;10439821;28;20211;-73
2023/03/31 19:36:25;;;;;;;2.63;2.40;;;;;;;12.25;52.99;98423.16;10432390;28;20224;-73
2023/03/31 19:41:27;;;;;;;5.30;2.53;;;;;;;12.07;53.16;98395.34;10437168;28;20207;-73
2023/03/31 19:46:29;;;;;;;5.73;2.63;;;;;;;12.78;51.40;98426.91;10437246;28;20835;-73
2023/03/31 19:51:31;;;;;;;5.40;2.47;;;;;;;11.65;52.74;98365.81;10440778;28;20293;-73
2023/03/31 19:56:33;;;;;;;4.10;2.27;;;;;;;11.49;53.33;98385.16;10432593;28;20365;-73
2023/03/31 20:01:36;;;;;;;6.17;2.33;;;;;;;11.44;52.91;98375.94;10433104;28;20590;-73
2023/03/31 20:06:37;;;;;;;4.63;2.60;;;;;;;10.47;54.39;98356.91;10433135;28;20592;-73
2023/03/31 20:11:42;;;;;;;5.97;2.77;;;;;;;11.06;52.55;98370.78;10430714;28;20227;-73
2023/03/31 20:16:43;;;;;;;4.93;2.50;;;;;;;11.21;53.78;98414.09;10429524;28;20973;-73
2023/03/31 20:21:45;;;;;;;4.47;2.40;;;;;;;10.47;54.09;98380.97;10441437;28;20230;-74
2023/03/31 20:26:47;;;;;;;2.90;2.20;;;;;;;9.99;54.28;98352.09;10441775;28;20232;-73
2023/03/31 20:31:49;;;;;;;2.40;2.20;;;;;;;11.31;52.33;98413.59;10431276;28;20228;-73
2023/03/31 20:36:51;;;;;;;3.80;2.47;;;;;;;11.36;51.65;98429.78;10435313;28;20308;-72
2023/03/31 20:41:54;;;;;;;3.40;2.03;;;;;;;10.72;52.94;98414.94;10435119;28;20255;-69
2023/03/31 20:46:57;;;;;;;2.73;2.27;;;;;;;10.74;52.96;98426.25;10435300;28;20322;-73
2023/03/31 20:51:59;;;;;;;2.50;2.20;;;;;;;9.24;54.85;98321.44;10440346;28;20902;-72
2023/03/31 20:57:04;;;;;;;4.20;2.83;;;;;;;11.49;52.12;98452.13;10439511;28;20235;-76
2023/03/31 21:02:06;;;;;;;2.80;2.07;;;;;;;9.75;54.83;98389.22;10437744;28;20219;-75
2023/03/31 21:07:08;;;;;;;2.83;2.53;;;;;;;10.20;53.00;98397.22;10457319;28;20258;-74
2023/03/31 21:12:09;;;;;;;3.73;2.07;;;;;;;10.65;53.37;98437.22;10434971;28;20921;-73
2023/03/31 21:17:11;;;;;;;4.60;2.27;;;;;;;10.11;53.89;98425.25;10435505;28;20244;-75
2023/03/31 21:22:13;;;;;;;3.87;2.13;;;;;;;10.38;53.95;98433.91;10434488;28;20742;-75
2023/03/31 21:27:14;;;;;;;2.53;2.33;;;;;;;9.31;54.22;98324.09;10433665;28;20231;-74
2023/03/31 21:32:16;;;;;;;2.77;1.90;;;;;;;10.93;52.91;98456.56;10433108;28;20232;-72
2023/03/31 21:37:18;;;;;;;3.70;2.70;;;;;;;11.21;52.10;98453.44;10428223;28;20240;-76
2023/03/31 21:42:19;;;;;;;5.47;2.23;;;;;;;11.19;52.95;98479.63;10429962;28;20236;-73
2023/03/31 21:47:21;;;;;;;3.73;2.00;;;;;;;10.48;52.82;98436.94;10432020;28;20614;-73
2023/03/31 21:52:23;;;;;;;2.60;2.20;;;;;;;10.98;51.84;98462.09;10428592;28;20462;-73
2023/03/31 21:57:25;;;;;;;2.43;1.73;;;;;;;11.62;50.65;98511.78;10436433;28;20274;-74
2023/03/31 22:02:26;;;;;;;1.60;1.50;;;;;;;11.52;51.29;98511.41;10440890;28;20373;-76
2023/03/31 22:07:28;;;;;;;1.97;1.60;;;;;;;11.25;51.63;98495.63;10436193;28;20235;-77
2023/03/31 22:12:30;;;;;;;1.93;1.70;;;;;;;9.91;52.26;98393.28;10435135;28;20238;-71
2023/03/31 22:17:32;;;;;;;2.70;1.80;;;;;;;10.78;52.77;98497.88;10429862;28;20235;-75
2023/03/31 22:22:36;;;;;;;3.37;2.30;;;;;;;10.50;52.56;98472.28;10430245;28;20242;-73
2023/03/31 22:27:37;;;;;;;1.83;1.73;;;;;;;8.92;55.37;98387.22;10430837;28;20236;-73
2023/03/31 22:32:39;;;;;;;2.27;2.00;;;;;;;10.24;53.58;98483.16;10428332;28;20254;-75
2023/03/31 22:37:41;;;;;;;2.23;2.07;;;;;;;10.62;52.81;98472.41;10433171;28;20788;-71
2023/03/31 22:42:43;;;;;;;2.93;2.20;;;;;;;10.16;53.78;98462.84;10431380;28;20228;-73
2023/03/31 22:47:44;;;;;;;5.47;2.20;;;;;;;10.16;54.29;98478.88;10433650;28;20228;-73
2023/03/31 22:52:46;;;;;;;4.23;2.40;;;;;;;10.36;54.33;98502.00;10432941;28;20254;-72
2023/03/31 22:57:48;;;;;;;3.60;2.23;;;;;;;9.00;57.26;98406.50;10436515;28;20232;-73
2023/03/31 23:02:50;;;;;;;5.40;2.27;;;;;;;10.91;53.86;98512.19;10427645;28;20241;-72
2023/03/31 23:07:51;;;;;;;3.83;2.73;;;;;;;9.58;54.24;98447.63;10433700;28;20295;-73
2023/03/31 23:12:53;;;;;;;7.93;2.50;;;;;;;10.70;53.25;98517.63;10427577;28;20269;-72
2023/03/31 23:17:55;;;;;;;3.37;2.37;;;;;;;10.73;52.65;98505.69;10437628;28;20227;-72
2023/03/31 23:22:58;;;;;;;2.80;1.97;;;;;;;11.76;51.03;98575.94;10427993;28;20233;-72
2023/03/31 23:28:00;;;;;;;3.13;2.33;;;;;;;10.25;54.76;98533.72;10437008;28;20243;-73
2023/03/31 23:33:01;;;;;;;3.07;2.70;;;;;;;10.45;53.27;98519.44;10426576;28;20246;-72
2023/03/31 23:38:03;;;;;;;1.83;1.70;;;;;;;9.73;54.98;98477.56;10432110;28;21440;-72
2023/03/31 23:43:05;;;;;;;3.60;2.03;;;;;;;10.76;51.88;98501.78;10430811;28;20251;-73
2023/03/31 23:48:07;;;;;;;2.40;2.20;;;;;;;10.56;52.78;98502.69;10434907;28;20243;-72
2023/03/31 23:53:09;;;;;;;2.60;2.33;;;;;;;11.17;51.15;98533.41;10431570;28;20260;-72